createdAt,value
2018-07-27T00:00:01.110Z,24.86
2018-07-27T00:02:27.791Z,24.84
2018-07-27T00:04:54.390Z,24.84
2018-07-27T00:07:21.028Z,24.87
2018-07-27T00:09:47.669Z,24.82
2018-07-27T00:12:14.380Z,24.83
2018-07-27T00:14:41.021Z,24.83
2018-07-27T00:17:07.659Z,24.87
2018-07-27T00:19:34.308Z,24.83
2018-07-27T00:22:00.942Z,24.81
2018-07-27T00:24:27.581Z,24.82
2018-07-27T00:26:54.225Z,24.80
2018-07-27T00:29:20.863Z,24.80
2018-07-27T00:31:47.505Z,24.76
2018-07-27T00:34:14.146Z,24.74
2018-07-27T00:36:40.797Z,24.75
2018-07-27T00:39:07.426Z,24.78
2018-07-27T00:41:34.064Z,24.77
2018-07-27T00:44:00.702Z,24.74
2018-07-27T00:46:27.339Z,24.74
2018-07-27T00:48:53.978Z,24.73
2018-07-27T00:51:20.613Z,24.79
2018-07-27T00:53:47.253Z,24.77
2018-07-27T00:56:13.892Z,24.74
2018-07-27T00:58:40.538Z,24.73
2018-07-27T01:01:07.176Z,24.77
2018-07-27T01:03:33.823Z,24.74
2018-07-27T01:06:00.450Z,24.73
2018-07-27T01:08:27.089Z,24.73
2018-07-27T01:10:53.747Z,24.72
2018-07-27T01:13:20.394Z,24.71
2018-07-27T01:15:47.033Z,24.73
2018-07-27T01:18:13.669Z,24.75
2018-07-27T01:20:40.309Z,24.66
2018-07-27T01:23:06.951Z,24.70
2018-07-27T01:25:33.624Z,24.69
2018-07-27T01:28:00.265Z,24.71
2018-07-27T01:30:26.905Z,24.70
2018-07-27T01:32:53.549Z,24.67
2018-07-27T01:35:20.194Z,24.68
2018-07-27T01:37:46.878Z,24.63
2018-07-27T01:40:13.541Z,24.69
2018-07-27T01:42:40.196Z,24.61
2018-07-27T01:45:06.823Z,24.61
2018-07-27T01:47:33.464Z,24.65
2018-07-27T01:50:00.092Z,24.64
2018-07-27T01:52:26.726Z,24.59
2018-07-27T01:54:53.362Z,24.60
2018-07-27T01:57:20.060Z,24.60
2018-07-27T01:59:46.691Z,24.62
2018-07-27T02:02:13.322Z,24.64
2018-07-27T02:04:39.962Z,24.58
2018-07-27T02:07:06.611Z,24.60
2018-07-27T02:09:33.335Z,24.61
2018-07-27T02:11:59.942Z,24.57
2018-07-27T02:14:26.591Z,24.58
2018-07-27T02:16:53.281Z,24.59
2018-07-27T02:19:19.921Z,24.56
2018-07-27T02:21:46.556Z,24.58
2018-07-27T02:24:13.197Z,24.56
2018-07-27T02:26:39.834Z,24.60
2018-07-27T02:29:06.513Z,24.57
2018-07-27T02:31:33.157Z,24.55
2018-07-27T02:33:59.878Z,24.56
2018-07-27T02:36:26.511Z,24.55
2018-07-27T02:38:53.133Z,24.56
2018-07-27T02:41:19.783Z,24.59
2018-07-27T02:43:46.432Z,24.54
2018-07-27T02:46:13.077Z,24.55
2018-07-27T02:48:39.703Z,24.48
2018-07-27T02:51:06.345Z,24.49
2018-07-27T02:53:33.017Z,24.52
2018-07-27T02:55:59.709Z,24.55
2018-07-27T02:58:26.474Z,24.51
2018-07-27T03:00:53.147Z,24.50
2018-07-27T03:03:19.766Z,24.50
2018-07-27T03:05:46.443Z,24.48
2018-07-27T03:08:13.084Z,24.51
2018-07-27T03:10:39.717Z,24.58
2018-07-27T03:13:06.366Z,24.40
2018-07-27T03:15:33.014Z,24.36
2018-07-27T03:17:59.671Z,24.39
2018-07-27T03:20:26.318Z,24.28
2018-07-27T03:22:52.965Z,24.28
2018-07-27T03:25:19.619Z,24.27
2018-07-27T03:27:46.291Z,24.31
2018-07-27T03:30:12.934Z,24.29
2018-07-27T03:32:39.566Z,24.21
2018-07-27T03:35:06.219Z,24.36
2018-07-27T03:37:32.857Z,24.25
2018-07-27T03:39:59.504Z,24.30
2018-07-27T03:42:26.144Z,24.25
2018-07-27T03:44:52.780Z,24.16
2018-07-27T03:47:19.413Z,24.27
2018-07-27T03:49:46.088Z,24.18
2018-07-27T03:52:12.750Z,24.11
2018-07-27T03:54:39.387Z,24.22
2018-07-27T03:57:06.067Z,24.23
2018-07-27T03:59:32.698Z,24.29
2018-07-27T04:01:59.335Z,24.34
2018-07-27T04:04:25.986Z,24.38
2018-07-27T04:06:52.619Z,24.41
2018-07-27T04:09:19.293Z,24.39
2018-07-27T04:11:45.932Z,24.44
2018-07-27T04:14:12.629Z,24.58
2018-07-27T04:16:39.259Z,24.63
2018-07-27T04:19:05.902Z,24.56
2018-07-27T04:21:32.547Z,24.53
2018-07-27T04:23:59.178Z,24.55
2018-07-27T04:26:25.944Z,24.60
2018-07-27T04:28:52.492Z,24.58
2018-07-27T04:31:19.140Z,24.77
2018-07-27T04:33:46.283Z,24.82
2018-07-27T04:36:12.922Z,24.72
2018-07-27T04:38:39.558Z,24.78
2018-07-27T04:41:06.189Z,24.83
2018-07-27T04:43:32.833Z,24.84
2018-07-27T04:45:59.471Z,24.85
2018-07-27T04:48:26.132Z,24.90
2018-07-27T04:50:52.783Z,24.87
2018-07-27T04:53:19.453Z,24.82
2018-07-27T04:55:46.058Z,24.84
2018-07-27T04:58:12.701Z,24.83
2018-07-27T05:00:39.365Z,24.86
2018-07-27T05:03:06.003Z,24.90
2018-07-27T05:05:32.634Z,24.91
2018-07-27T05:07:59.272Z,24.89
2018-07-27T05:10:25.907Z,24.84
2018-07-27T05:12:52.555Z,24.88
2018-07-27T05:15:19.235Z,24.88
2018-07-27T05:17:45.869Z,24.90
2018-07-27T05:20:12.494Z,24.91
2018-07-27T05:22:39.159Z,24.92
2018-07-27T05:25:05.810Z,24.94
2018-07-27T05:27:32.532Z,25.15
2018-07-27T05:29:59.159Z,25.06
2018-07-27T05:32:25.807Z,25.01
2018-07-27T05:34:52.494Z,25.02
2018-07-27T05:37:19.173Z,25.04
2018-07-27T05:39:45.767Z,25.03
2018-07-27T05:42:12.425Z,25.01
2018-07-27T05:44:39.064Z,25.11
2018-07-27T05:47:05.785Z,25.07
2018-07-27T05:49:32.395Z,25.03
2018-07-27T05:51:59.052Z,25.03
2018-07-27T05:54:25.689Z,25.07
2018-07-27T05:56:52.456Z,25.08
2018-07-27T05:59:19.121Z,25.10
2018-07-27T06:01:45.782Z,25.08
2018-07-27T06:04:12.430Z,25.09
2018-07-27T06:06:39.078Z,25.08
2018-07-27T06:09:05.716Z,25.10
2018-07-27T06:11:32.358Z,24.94
2018-07-27T06:13:59.036Z,24.76
2018-07-27T06:16:25.647Z,24.90
2018-07-27T06:18:52.280Z,24.88
2018-07-27T06:21:18.932Z,25.05
2018-07-27T06:23:45.602Z,25.02
2018-07-27T06:26:12.265Z,25.20
2018-07-27T06:28:38.905Z,25.17
2018-07-27T06:31:05.528Z,25.24
2018-07-27T06:33:32.192Z,25.17
2018-07-27T06:35:58.859Z,24.91
2018-07-27T06:38:25.498Z,25.09
2018-07-27T06:40:52.133Z,25.32
2018-07-27T06:43:18.821Z,25.26
2018-07-27T06:45:45.466Z,25.08
2018-07-27T06:48:12.152Z,25.26
2018-07-27T06:50:38.798Z,25.11
2018-07-27T06:53:05.448Z,24.94
2018-07-27T06:55:32.103Z,24.89
2018-07-27T06:57:58.758Z,24.97
2018-07-27T07:00:25.403Z,24.93
2018-07-27T07:02:52.042Z,24.98
2018-07-27T07:05:18.733Z,24.96
2018-07-27T07:07:45.440Z,25.12
2018-07-27T07:10:15.437Z,25.24
2018-07-27T07:12:42.048Z,25.29
2018-07-27T07:15:08.734Z,25.21
2018-07-27T07:17:35.375Z,25.03
2018-07-27T07:20:02.092Z,25.00
2018-07-27T07:22:28.815Z,24.99
2018-07-27T07:24:55.414Z,24.97
2018-07-27T07:27:22.125Z,24.99
2018-07-27T07:29:48.741Z,24.95
2018-07-27T07:32:15.428Z,25.07
2018-07-27T07:34:42.217Z,25.02
2018-07-27T07:37:08.876Z,25.04
2018-07-27T07:39:35.630Z,25.12
2018-07-27T07:42:02.335Z,25.01
2018-07-27T07:44:28.974Z,25.02
2018-07-27T07:46:55.628Z,24.94
2018-07-27T07:49:22.284Z,25.04
2018-07-27T07:51:48.918Z,25.17
2018-07-27T07:54:15.595Z,25.13
2018-07-27T07:56:42.269Z,25.20
2018-07-27T07:59:08.918Z,25.21
2018-07-27T08:01:35.553Z,25.15
2018-07-27T08:04:02.203Z,25.25
2018-07-27T08:06:28.923Z,25.29
2018-07-27T08:08:55.555Z,25.29
2018-07-27T08:11:22.246Z,25.39
2018-07-27T08:13:48.880Z,25.56
2018-07-27T08:16:15.588Z,25.58
2018-07-27T08:18:42.269Z,25.59
2018-07-27T08:21:08.897Z,25.65
2018-07-27T08:23:35.586Z,25.70
2018-07-27T08:26:02.273Z,25.69
2018-07-27T08:28:28.948Z,25.69
2018-07-27T08:30:55.557Z,25.65
2018-07-27T08:33:22.898Z,25.75
2018-07-27T08:35:49.540Z,25.74
2018-07-27T08:38:16.188Z,25.69
2018-07-27T08:40:42.892Z,25.76
2018-07-27T08:43:09.543Z,25.90
2018-07-27T08:45:36.221Z,25.80
2018-07-27T08:48:02.866Z,25.86
2018-07-27T08:50:29.520Z,25.91
2018-07-27T08:52:56.219Z,25.87
2018-07-27T08:55:22.867Z,25.90
2018-07-27T08:57:49.557Z,25.89
2018-07-27T09:00:16.265Z,25.94
2018-07-27T09:02:42.917Z,25.86
2018-07-27T09:05:09.560Z,25.72
2018-07-27T09:07:36.268Z,25.86
2018-07-27T09:10:02.905Z,25.84
2018-07-27T09:12:29.582Z,25.78
2018-07-27T09:14:56.214Z,25.67
2018-07-27T09:17:22.950Z,25.76
2018-07-27T09:19:49.537Z,25.86
2018-07-27T09:22:16.245Z,26.08
2018-07-27T09:24:43.100Z,25.92
2018-07-27T09:27:09.598Z,25.99
2018-07-27T09:29:36.237Z,25.89
2018-07-27T09:32:02.974Z,25.83
2018-07-27T09:34:29.609Z,25.73
2018-07-27T09:36:56.253Z,25.75
2018-07-27T09:39:22.990Z,25.76
2018-07-27T09:41:49.644Z,25.73
2018-07-27T09:44:16.290Z,25.72
2018-07-27T09:46:42.936Z,25.73
2018-07-27T09:49:09.633Z,25.74
2018-07-27T09:51:36.274Z,25.78
2018-07-27T09:54:02.988Z,25.79
2018-07-27T09:56:29.622Z,25.75
2018-07-27T09:58:56.295Z,25.78
2018-07-27T10:01:22.947Z,25.89
2018-07-27T10:03:49.594Z,25.84
2018-07-27T10:06:16.241Z,25.78
2018-07-27T10:08:42.886Z,25.70
2018-07-27T10:11:09.585Z,25.74
2018-07-27T10:13:36.225Z,25.79
2018-07-27T10:16:03.947Z,25.77
2018-07-27T10:18:34.621Z,25.80
2018-07-27T10:21:01.349Z,26.00
2018-07-27T10:23:28.008Z,25.89
2018-07-27T10:25:54.744Z,25.94
2018-07-27T10:28:21.524Z,25.90
2018-07-27T10:30:48.205Z,25.97
2018-07-27T10:33:14.942Z,25.89
2018-07-27T10:35:41.623Z,25.93
2018-07-27T10:38:09.768Z,25.98
2018-07-27T10:40:34.926Z,25.93
2018-07-27T10:43:01.719Z,25.96
2018-07-27T10:45:28.486Z,26.13
2018-07-27T10:47:55.141Z,26.04
2018-07-27T10:50:21.837Z,26.05
2018-07-27T10:52:48.532Z,25.98
2018-07-27T10:55:15.205Z,25.96
2018-07-27T10:57:41.848Z,26.01
2018-07-27T11:00:08.558Z,26.07
2018-07-27T11:02:35.230Z,26.15
2018-07-27T11:05:01.965Z,26.03
2018-07-27T11:07:28.576Z,26.09
2018-07-27T11:09:55.266Z,26.18
2018-07-27T11:12:21.862Z,26.18
2018-07-27T11:14:48.616Z,26.06
2018-07-27T11:17:15.348Z,26.06
2018-07-27T11:19:41.971Z,26.08
2018-07-27T11:22:08.664Z,26.17
2018-07-27T11:24:35.383Z,26.20
2018-07-27T11:27:02.120Z,26.19
2018-07-27T11:29:28.825Z,26.07
2018-07-27T11:31:55.450Z,26.08
2018-07-27T11:34:22.162Z,26.13
2018-07-27T11:36:48.818Z,26.21
2018-07-27T11:39:15.603Z,26.21
2018-07-27T11:41:42.264Z,26.28
2018-07-27T11:44:08.973Z,26.43
2018-07-27T11:46:35.619Z,26.50
2018-07-27T11:49:02.342Z,26.37
2018-07-27T11:51:28.962Z,26.43
2018-07-27T11:53:55.663Z,26.36
2018-07-27T11:56:22.313Z,26.38
2018-07-27T11:58:48.945Z,26.40
2018-07-27T12:01:15.620Z,26.32
2018-07-27T12:03:42.266Z,26.29
2018-07-27T12:06:08.989Z,26.32
2018-07-27T12:08:35.940Z,26.30
2018-07-27T12:11:02.610Z,26.25
2018-07-27T12:13:29.314Z,26.29
2018-07-27T12:15:55.973Z,26.27
2018-07-27T12:18:22.628Z,26.40
2018-07-27T12:20:49.423Z,26.50
2018-07-27T12:23:16.016Z,26.51
2018-07-27T12:25:42.695Z,26.48
2018-07-27T12:28:09.493Z,26.45
2018-07-27T12:30:36.154Z,26.28
2018-07-27T12:33:02.799Z,26.25
2018-07-27T12:35:29.616Z,26.33
2018-07-27T12:37:56.255Z,26.35
2018-07-27T12:40:22.928Z,26.29
2018-07-27T12:42:49.596Z,26.38
2018-07-27T12:45:16.229Z,26.44
2018-07-27T12:47:42.924Z,26.59
2018-07-27T12:50:09.592Z,26.45
2018-07-27T12:52:36.210Z,26.45
2018-07-27T12:55:02.882Z,26.38
2018-07-27T12:57:29.967Z,26.36
2018-07-27T12:59:56.637Z,26.50
2018-07-27T13:02:23.313Z,26.47
2018-07-27T13:04:49.940Z,26.39
2018-07-27T13:07:16.647Z,26.39
2018-07-27T13:09:43.286Z,26.35
2018-07-27T13:12:09.933Z,26.32
2018-07-27T13:14:36.594Z,26.32
2018-07-27T13:17:03.262Z,26.30
2018-07-27T13:19:30.291Z,26.37
2018-07-27T13:21:56.946Z,26.39
2018-07-27T13:26:50.222Z,26.46
2018-07-27T13:29:16.873Z,26.47
2018-07-27T13:31:43.528Z,26.49
2018-07-27T13:34:10.166Z,26.31
2018-07-27T13:36:36.845Z,26.36
2018-07-27T13:39:03.458Z,26.36
2018-07-27T13:41:30.123Z,26.27
2018-07-27T13:43:56.817Z,26.25
2018-07-27T13:46:23.544Z,26.21
2018-07-27T13:48:50.145Z,26.30
2018-07-27T13:51:16.796Z,26.28
2018-07-27T13:53:43.553Z,26.27
2018-07-27T13:56:10.624Z,26.13
2018-07-27T13:58:37.320Z,26.17
2018-07-27T14:01:03.993Z,26.10
2018-07-27T14:03:30.611Z,26.01
2018-07-27T14:05:57.262Z,26.04
2018-07-27T14:08:23.971Z,26.00
2018-07-27T14:10:50.614Z,25.97
2018-07-27T14:13:17.257Z,25.95
2018-07-27T14:15:43.906Z,25.98
2018-07-27T14:18:10.551Z,25.97
2018-07-27T14:20:37.207Z,25.83
2018-07-27T14:23:03.856Z,25.78
2018-07-27T14:25:30.530Z,25.78
2018-07-27T14:27:57.188Z,25.73
2018-07-27T14:30:23.898Z,25.76
2018-07-27T14:32:50.490Z,25.74
2018-07-27T14:35:17.208Z,25.69
2018-07-27T14:37:43.850Z,25.61
2018-07-27T14:40:10.534Z,25.60
2018-07-27T14:42:37.188Z,25.65
2018-07-27T14:45:03.833Z,25.67
2018-07-27T14:47:30.614Z,25.59
2018-07-27T14:49:57.280Z,25.65
2018-07-27T14:52:23.999Z,25.61
2018-07-27T14:54:50.606Z,25.63
2018-07-27T14:57:17.241Z,25.55
2018-07-27T14:59:43.897Z,25.53
2018-07-27T15:02:10.559Z,25.57
2018-07-27T15:04:37.270Z,25.55
2018-07-27T15:07:03.855Z,25.42
2018-07-27T15:09:30.509Z,25.54
2018-07-27T15:11:58.512Z,25.51
2018-07-27T15:14:23.848Z,25.39
2018-07-27T15:16:50.530Z,25.32
2018-07-27T15:19:17.180Z,25.24
2018-07-27T15:21:43.822Z,25.36
2018-07-27T15:24:10.561Z,25.37
2018-07-27T15:26:37.158Z,25.39
2018-07-27T15:29:03.914Z,25.36
2018-07-27T15:31:30.519Z,25.33
2018-07-27T15:33:57.196Z,25.33
2018-07-27T15:36:23.894Z,25.36
2018-07-27T15:38:50.516Z,25.26
2018-07-27T15:41:17.173Z,25.33
2018-07-27T15:43:43.805Z,25.34
2018-07-27T15:46:10.491Z,25.34
2018-07-27T15:48:37.129Z,25.44
2018-07-27T15:51:03.742Z,25.37
2018-07-27T15:53:30.380Z,25.39
2018-07-27T15:55:57.021Z,25.29
2018-07-27T15:58:23.660Z,25.15
2018-07-27T16:00:50.291Z,25.21
2018-07-27T16:03:16.940Z,25.28
2018-07-27T16:05:43.577Z,25.18
2018-07-27T16:08:10.224Z,25.17
2018-07-27T16:10:36.874Z,25.14
2018-07-27T16:13:03.523Z,25.26
2018-07-27T16:15:30.192Z,25.28
2018-07-27T16:17:56.806Z,25.23
2018-07-27T16:20:23.462Z,25.17
2018-07-27T16:22:50.121Z,25.13
2018-07-27T16:25:16.758Z,25.17
2018-07-27T16:27:43.399Z,25.19
2018-07-27T16:30:10.046Z,25.12
2018-07-27T16:32:37.183Z,25.12
2018-07-27T16:35:03.833Z,25.12
2018-07-27T16:37:30.483Z,25.07
2018-07-27T16:39:57.129Z,25.08
2018-07-27T16:42:24.611Z,25.04
2018-07-27T16:44:51.294Z,25.08
2018-07-27T16:47:17.931Z,25.08
2018-07-27T16:49:44.557Z,25.09
2018-07-27T16:52:11.203Z,24.97
2018-07-27T16:54:37.868Z,25.01
2018-07-27T16:57:04.523Z,25.02
2018-07-27T16:59:31.167Z,24.88
2018-07-27T17:01:57.803Z,24.97
2018-07-27T17:04:24.437Z,24.88
2018-07-27T17:06:51.120Z,24.89
2018-07-27T17:09:17.805Z,24.86
2018-07-27T17:11:44.396Z,24.84
2018-07-27T17:14:11.076Z,24.77
2018-07-27T17:16:37.677Z,24.75
2018-07-27T17:19:04.351Z,24.83
2018-07-27T17:21:30.947Z,25.04
2018-07-27T17:23:57.586Z,25.14
2018-07-27T17:26:24.210Z,25.15
2018-07-27T17:28:51.407Z,25.34
2018-07-27T17:31:18.036Z,25.44
2018-07-27T17:33:44.712Z,25.37
2018-07-27T17:36:11.310Z,25.14
2018-07-27T17:38:37.952Z,25.10
2018-07-27T17:41:04.586Z,24.93
2018-07-27T17:43:31.237Z,24.95
2018-07-27T17:45:57.933Z,24.76
2018-07-27T17:48:24.574Z,24.82
2018-07-27T17:50:51.240Z,25.09
2018-07-27T17:53:19.549Z,25.08
2018-07-27T17:55:44.512Z,25.24
2018-07-27T17:58:11.148Z,25.33
2018-07-27T18:00:37.784Z,25.31
2018-07-27T18:03:04.428Z,25.42
2018-07-27T18:05:31.100Z,25.42
2018-07-27T18:07:57.931Z,25.35
2018-07-27T18:10:24.350Z,25.14
2018-07-27T18:12:51.017Z,25.00
2018-07-27T18:15:17.663Z,24.97
2018-07-27T18:17:44.302Z,24.97
2018-07-27T18:20:10.944Z,24.82
2018-07-27T18:22:37.586Z,24.92
2018-07-27T18:25:04.253Z,25.02
2018-07-27T18:27:30.903Z,25.07
2018-07-27T18:29:57.540Z,25.17
2018-07-27T18:32:24.222Z,25.25
2018-07-27T18:34:50.824Z,25.31
2018-07-27T18:37:17.462Z,25.38
2018-07-27T18:39:44.206Z,25.37
2018-07-27T18:42:10.784Z,25.39
2018-07-27T18:44:37.507Z,25.44
2018-07-27T18:47:04.167Z,25.27
2018-07-27T18:49:30.816Z,25.10
2018-07-27T18:51:57.442Z,24.96
2018-07-27T18:54:24.088Z,25.06
2018-07-27T18:56:50.749Z,25.14
2018-07-27T18:59:17.407Z,25.23
2018-07-27T19:01:44.075Z,25.26
2018-07-27T19:04:10.658Z,25.33
2018-07-27T19:06:37.309Z,25.36
2018-07-27T19:09:04.019Z,25.42
2018-07-27T19:11:30.654Z,25.37
2018-07-27T19:13:57.312Z,25.32
2018-07-27T19:16:23.971Z,25.35
2018-07-27T19:18:50.606Z,25.37
2018-07-27T19:21:17.246Z,25.38
2018-07-27T19:23:43.944Z,25.46
2018-07-27T19:26:10.596Z,25.29
2018-07-27T19:28:37.246Z,25.11
2018-07-27T19:31:03.888Z,24.99
2018-07-27T19:33:30.528Z,24.81
2018-07-27T19:35:57.208Z,24.85
2018-07-27T19:38:23.844Z,24.97
2018-07-27T19:40:50.484Z,25.12
2018-07-27T19:43:17.145Z,25.20
2018-07-27T19:45:43.775Z,25.19
2018-07-27T19:48:10.425Z,25.24
2018-07-27T19:50:37.062Z,25.27
2018-07-27T19:53:03.715Z,25.30
2018-07-27T19:55:30.362Z,25.27
2018-07-27T19:57:56.998Z,25.28
2018-07-27T20:00:23.744Z,25.31
2018-07-27T20:02:50.382Z,25.32
2018-07-27T20:05:17.118Z,25.33
2018-07-27T20:07:43.757Z,25.36
2018-07-27T20:10:10.396Z,25.39
2018-07-27T20:12:37.038Z,25.39
2018-07-27T20:15:03.738Z,25.39
2018-07-27T20:17:30.389Z,25.28
2018-07-27T20:19:57.016Z,25.09
2018-07-27T20:22:23.661Z,24.97
2018-07-27T20:24:50.287Z,24.88
2018-07-27T20:27:16.979Z,24.90
2018-07-27T20:29:43.622Z,25.11
2018-07-27T20:32:10.319Z,25.14
2018-07-27T20:34:36.982Z,25.21
2018-07-27T20:37:03.610Z,25.23
2018-07-27T20:39:30.263Z,25.27
2018-07-27T20:41:56.897Z,25.25
2018-07-27T20:44:23.548Z,25.20
2018-07-27T20:46:50.196Z,25.17
2018-07-27T20:49:16.835Z,25.19
2018-07-27T20:51:43.482Z,25.27
2018-07-27T20:54:10.123Z,25.23
2018-07-27T20:56:36.787Z,25.25
2018-07-27T20:59:03.469Z,25.26
2018-07-27T21:01:30.209Z,25.26
2018-07-27T21:03:58.229Z,25.32
2018-07-27T21:06:23.476Z,25.33
2018-07-27T21:08:50.120Z,25.28
2018-07-27T21:11:16.763Z,25.31
2018-07-27T21:13:43.413Z,25.33
2018-07-27T21:16:10.051Z,25.34
2018-07-27T21:18:36.718Z,25.32
2018-07-27T21:21:03.350Z,25.34
2018-07-27T21:23:30.000Z,25.33
2018-07-27T21:25:56.659Z,25.32
2018-07-27T21:28:23.307Z,25.34
2018-07-27T21:30:49.943Z,25.33
2018-07-27T21:33:16.579Z,25.35
2018-07-27T21:35:43.250Z,25.26
2018-07-27T21:38:09.922Z,25.29
2018-07-27T21:40:36.544Z,25.31
2018-07-27T21:43:03.183Z,25.31
2018-07-27T21:45:29.819Z,25.32
2018-07-27T21:47:56.507Z,25.34
2018-07-27T21:50:23.161Z,25.32
2018-07-27T21:52:49.844Z,25.32
2018-07-27T21:55:16.484Z,25.30
2018-07-27T21:57:43.159Z,25.30
2018-07-27T22:00:09.857Z,25.32
2018-07-27T22:02:36.539Z,25.31
2018-07-27T22:05:03.195Z,25.29
2018-07-27T22:07:29.826Z,25.30
2018-07-27T22:09:56.519Z,25.30
2018-07-27T22:12:23.176Z,25.30
2018-07-27T22:14:49.888Z,25.33
2018-07-27T22:17:16.479Z,25.31
2018-07-27T22:19:43.133Z,25.33
2018-07-27T22:22:09.769Z,25.30
2018-07-27T22:24:36.407Z,25.30
2018-07-27T22:27:03.084Z,25.27
2018-07-27T22:29:29.727Z,25.29
2018-07-27T22:31:56.361Z,25.30
2018-07-27T22:34:22.999Z,25.28
2018-07-27T22:36:49.656Z,25.25
2018-07-27T22:39:16.280Z,25.28
2018-07-27T22:41:42.927Z,25.30
2018-07-27T22:44:09.566Z,25.28
2018-07-27T22:46:36.280Z,25.30
2018-07-27T22:49:02.931Z,25.30
2018-07-27T22:51:29.583Z,25.26
2018-07-27T22:53:56.222Z,25.24
2018-07-27T22:56:22.866Z,25.28
2018-07-27T22:58:49.550Z,25.26
2018-07-27T23:01:16.180Z,25.29
2018-07-27T23:03:42.863Z,25.29
2018-07-27T23:06:09.464Z,25.29
2018-07-27T23:08:36.115Z,25.32
2018-07-27T23:11:02.809Z,25.28
2018-07-27T23:13:29.433Z,25.28
2018-07-27T23:15:56.105Z,25.29
2018-07-27T23:18:22.750Z,25.25
2018-07-27T23:20:49.390Z,25.24
2018-07-27T23:23:16.038Z,25.23
2018-07-27T23:25:42.681Z,25.26
2018-07-27T23:28:09.325Z,25.28
2018-07-27T23:30:36.010Z,25.20
2018-07-27T23:33:02.646Z,25.23
2018-07-27T23:35:29.329Z,25.22
2018-07-27T23:37:56.069Z,25.20
2018-07-27T23:40:22.716Z,25.23
2018-07-27T23:42:49.379Z,25.22
2018-07-27T23:45:16.004Z,25.19
2018-07-27T23:47:42.684Z,25.14
2018-07-27T23:50:09.325Z,25.17
2018-07-27T23:52:36.011Z,25.17
2018-07-27T23:55:02.640Z,25.13
2018-07-27T23:57:29.271Z,25.16
2018-07-27T23:59:55.919Z,25.13
